Time;durP1;ratioP1;P1;durP2;ratioP2;P2;SDS_P1;SDS_P2;PMS_P1;PMS_P2;Temp;Humidity;BMP_temperature;BMP_pressure;BME280_temperature;BME280_humidity;BME280_pressure;Samples;Min_cycle;Max_cycle;Signal;HPM_P1;HPM_P2
2022/06/27 00:01:29;;;;;;;7.43;4.63;;;;;;;22.05;100.00;101407.97;7394433;19;20476;-43
2022/06/27 00:03:58;;;;;;;5.50;4.00;;;;;;;22.02;100.00;101418.91;7393015;19;20067;-44
2022/06/27 00:06:27;;;;;;;6.30;4.28;;;;;;;21.99;100.00;101424.50;7393621;19;20010;-43
2022/06/27 00:08:56;;;;;;;6.53;3.78;;;;;;;22.19;100.00;101422.81;7393619;19;20015;-43
2022/06/27 00:11:25;;;;;;;6.93;4.38;;;;;;;22.23;100.00;101423.41;7393463;19;20018;-43
2022/06/27 00:13:56;;;;;;;6.30;4.20;;;;;;;22.15;100.00;101417.88;7392764;19;20022;-44
2022/06/27 00:16:25;;;;;;;6.65;4.25;;;;;;;22.30;100.00;101430.78;7394410;19;20018;-43
2022/06/27 00:18:54;;;;;;;6.85;4.10;;;;;;;22.32;100.00;101422.63;7393150;19;20019;-43
2022/06/27 00:21:23;;;;;;;4.80;3.92;;;;;;;22.35;100.00;101429.56;7394130;19;20427;-43
2022/06/27 00:23:52;;;;;;;6.65;4.32;;;;;;;22.20;100.00;101427.19;7397018;19;20021;-43
2022/06/27 00:26:21;;;;;;;7.40;4.20;;;;;;;21.93;100.00;101420.50;7398225;19;20015;-44
2022/06/27 00:28:50;;;;;;;7.35;4.05;;;;;;;22.01;100.00;101429.69;7396593;19;20011;-44
2022/06/27 00:31:22;;;;;;;6.68;4.10;;;;;;;22.00;100.00;101433.34;7394458;19;20006;-47
2022/06/27 00:33:51;;;;;;;5.90;4.18;;;;;;;21.96;100.00;101438.09;7392484;19;20022;-43
2022/06/27 00:36:20;;;;;;;6.80;4.07;;;;;;;21.95;100.00;101441.75;7393970;19;20017;-43
2022/06/27 00:38:49;;;;;;;5.88;4.20;;;;;;;22.04;100.00;101450.81;7392272;19;20015;-44
2022/06/27 00:41:18;;;;;;;4.57;3.92;;;;;;;21.98;100.00;101459.31;7391070;19;20014;-42
2022/06/27 00:43:47;;;;;;;4.30;3.85;;;;;;;22.01;100.00;101457.25;7391774;19;20010;-43
2022/06/27 00:46:17;;;;;;;6.78;4.15;;;;;;;22.02;100.00;101463.41;7390651;19;20546;-43
2022/06/27 00:48:49;;;;;;;6.47;4.07;;;;;;;22.02;100.00;101455.41;7390118;19;20022;-43
2022/06/27 00:51:18;;;;;;;5.15;4.10;;;;;;;21.92;100.00;101464.19;7392574;19;20010;-44
2022/06/27 00:53:47;;;;;;;5.30;3.78;;;;;;;21.99;99.04;101469.00;7392158;19;20479;-42
2022/06/27 00:56:16;;;;;;;7.13;3.83;;;;;;;22.11;100.00;101473.34;7390928;19;20014;-43
2022/06/27 00:58:45;;;;;;;7.18;3.65;;;;;;;21.80;99.71;101464.34;7392304;19;20018;-43
2022/06/27 01:01:14;;;;;;;6.63;3.85;;;;;;;22.00;99.42;101465.38;7390658;19;20392;-46
2022/06/27 01:03:43;;;;;;;5.80;4.15;;;;;;;22.13;96.93;101474.91;7390996;19;20098;-45
2022/06/27 01:06:15;;;;;;;6.30;4.00;;;;;;;22.17;96.28;101475.50;7392228;19;20014;-42
2022/06/27 01:08:44;;;;;;;5.40;3.60;;;;;;;22.20;97.08;101479.75;7391490;19;20025;-43
2022/06/27 01:11:14;;;;;;;8.20;3.90;;;;;;;22.20;98.98;101479.75;7391926;19;20058;-43
2022/06/27 01:13:43;;;;;;;6.95;4.20;;;;;;;21.98;100.00;101478.84;7391087;19;20018;-44
2022/06/27 01:16:12;;;;;;;6.13;4.15;;;;;;;22.03;100.00;101473.97;7390264;19;20512;-43
2022/06/27 01:18:42;;;;;;;6.90;4.10;;;;;;;21.88;100.00;101470.75;7393088;19;20025;-44
2022/06/27 01:21:20;;;;;;;6.45;4.10;;;;;;;21.75;100.00;101478.06;7397965;19;20381;-44
2022/06/27 01:23:53;;;;;;;5.03;3.95;;;;;;;21.80;100.00;101470.53;7396682;19;20007;-44
2022/06/27 01:26:23;;;;;;;6.30;3.97;;;;;;;21.76;99.76;101471.75;7397298;19;20477;-43
2022/06/27 01:28:55;;;;;;;7.00;4.30;;;;;;;21.67;100.00;101473.34;7396971;19;20032;-43
2022/06/27 01:31:27;;;;;;;6.70;4.07;;;;;;;21.79;100.00;101466.16;7398144;19;20082;-46
2022/06/27 01:33:57;;;;;;;6.90;4.30;;;;;;;21.90;100.00;101460.78;7397665;19;20026;-43
2022/06/27 01:39:11;;;;;;;5.53;4.22;;;;;;;21.98;97.86;101462.84;7398652;19;20007;-44
2022/06/27 01:41:42;;;;;;;5.07;3.67;;;;;;;21.90;100.00;101455.44;7398773;19;20026;-44
2022/06/27 01:44:11;;;;;;;6.53;4.38;;;;;;;21.92;100.00;101456.19;7395364;19;20019;-44
2022/06/27 01:46:41;;;;;;;7.15;3.85;;;;;;;22.02;99.82;101456.28;7396723;19;20018;-44
2022/06/27 01:49:12;;;;;;;6.78;4.15;;;;;;;22.03;100.00;101449.13;7396524;19;20082;-45
2022/06/27 01:51:41;;;;;;;5.65;4.25;;;;;;;22.05;99.83;101448.00;7398490;19;20025;-46
2022/06/27 01:54:14;;;;;;;7.45;4.47;;;;;;;22.13;99.55;101447.38;7395334;19;20029;-43
2022/06/27 01:56:46;;;;;;;8.00;4.20;;;;;;;22.16;98.20;101443.59;7396365;19;20015;-43
2022/06/27 01:59:17;;;;;;;8.75;4.47;;;;;;;22.04;99.79;101427.63;7399647;19;20022;-44
2022/06/27 02:01:47;;;;;;;6.85;4.53;;;;;;;22.04;100.00;101422.28;7401635;19;20011;-44
2022/06/27 02:04:17;;;;;;;6.28;4.43;;;;;;;22.00;100.00;101423.53;7400208;19;20018;-44
2022/06/27 02:06:48;;;;;;;5.85;4.45;;;;;;;21.91;100.00;101417.13;7404112;19;20046;-43
2022/06/27 02:09:19;;;;;;;6.90;4.80;;;;;;;22.02;100.00;101402.03;7401215;19;20007;-43
2022/06/27 02:11:51;;;;;;;6.03;4.68;;;;;;;22.00;100.00;101404.00;7401299;19;20048;-43
2022/06/27 02:14:22;;;;;;;6.97;4.38;;;;;;;21.85;100.00;101400.78;7399509;19;20022;-44
2022/06/27 02:16:51;;;;;;;10.02;5.10;;;;;;;21.92;100.00;101405.50;7398983;19;20588;-43
2022/06/27 02:19:22;;;;;;;7.32;4.93;;;;;;;22.20;100.00;101399.66;7399949;19;20061;-43
2022/06/27 02:21:51;;;;;;;8.23;5.40;;;;;;;22.02;100.00;101402.91;7397930;19;20007;-43
2022/06/27 02:24:23;;;;;;;8.65;5.20;;;;;;;22.08;100.00;101413.06;7395599;19;20026;-43
2022/06/27 02:26:53;;;;;;;7.55;5.30;;;;;;;22.02;100.00;101405.56;7395691;19;20403;-47
2022/06/27 02:29:22;;;;;;;6.18;5.00;;;;;;;21.99;100.00;101405.81;7393579;19;20014;-43
2022/06/27 02:31:52;;;;;;;7.30;4.70;;;;;;;21.96;100.00;101403.41;7395782;19;20025;-44
2022/06/27 02:34:21;;;;;;;8.27;5.78;;;;;;;21.94;100.00;101408.88;7394507;19;20011;-43
2022/06/27 02:36:50;;;;;;;9.20;5.70;;;;;;;21.96;100.00;101403.41;7396661;19;20018;-48
2022/06/27 02:39:25;;;;;;;8.90;5.50;;;;;;;22.05;100.00;101402.66;7395893;19;20010;-43
2022/06/27 02:42:01;;;;;;;9.38;5.47;;;;;;;22.00;100.00;101399.50;7395347;19;20037;-45
2022/06/27 02:44:31;;;;;;;7.25;5.60;;;;;;;21.96;100.00;101398.06;7395123;19;20017;-43
2022/06/27 02:47:02;;;;;;;6.97;4.95;;;;;;;21.81;100.00;101394.88;7397047;19;20364;-43
2022/06/27 02:49:31;;;;;;;9.18;5.93;;;;;;;22.01;100.00;101381.66;7393932;19;20015;-44
2022/06/27 02:52:05;;;;;;;7.97;5.32;;;;;;;21.84;100.00;101377.75;7396562;19;20348;-43
2022/06/27 02:54:51;;;;;;;7.45;5.35;;;;;;;21.88;100.00;101379.16;7393297;19;20017;-43
2022/06/27 02:57:28;;;;;;;;;;;;;;;21.76;100.00;101376.56;7395401;19;20025;-44
2022/06/27 02:59:59;;;;;;;11.25;8.15;;;;;;;21.72;100.00;101377.81;7395523;19;19956;-43
2022/06/27 03:02:29;;;;;;;9.80;8.10;;;;;;;21.80;100.00;101369.16;7394935;19;20031;-44
2022/06/27 03:05:18;;;;;;;9.18;6.53;;;;;;;21.76;100.00;101368.56;7391947;19;20107;-44
2022/06/27 03:07:48;;;;;;;7.65;6.50;;;;;;;21.79;100.00;101354.09;7395593;19;20018;-43
2022/06/27 03:10:19;;;;;;;8.85;6.82;;;;;;;21.77;100.00;101356.06;7393100;19;20042;-43
2022/06/27 03:12:50;;;;;;;11.15;6.82;;;;;;;21.90;100.00;101345.22;7394921;19;20378;-45
2022/06/27 03:15:19;;;;;;;9.88;6.55;;;;;;;21.86;100.00;101349.94;7392694;19;20014;-44
2022/06/27 03:17:50;;;;;;;11.80;6.90;;;;;;;21.86;100.00;101341.94;7395952;19;20014;-43
2022/06/27 03:20:31;;;;;;;9.48;7.70;;;;;;;21.93;100.00;101350.28;7401306;19;20021;-44
2022/06/27 03:23:22;;;;;;;10.15;7.18;;;;;;;21.74;100.00;101345.66;7399311;19;20011;-43
2022/06/27 03:26:00;;;;;;;10.05;7.18;;;;;;;21.83;100.00;101344.88;7398673;19;20014;-42
2022/06/27 03:28:36;;;;;;;10.82;7.70;;;;;;;21.82;100.00;101348.53;7398832;19;20025;-42
2022/06/27 03:31:06;;;;;;;10.13;8.05;;;;;;;21.75;100.00;101353.53;7399550;19;20021;-42
2022/06/27 03:33:38;;;;;;;;;;;;;;;21.82;100.00;101350.34;7400818;19;20108;-42
2022/06/27 03:36:31;;;;;;;12.02;8.27;;;;;;;22.08;100.00;101343.66;7400125;19;20352;-43
2022/06/27 03:38:59;;;;;;;15.32;9.30;;;;;;;22.10;100.00;101348.88;7393229;19;20021;-43
2022/06/27 03:41:31;;;;;;;9.93;7.78;;;;;;;21.91;100.00;101347.75;7392378;19;20371;-43
2022/06/27 03:44:01;;;;;;;11.38;8.65;;;;;;;21.92;100.00;101336.13;7392095;19;20025;-42
2022/06/27 03:46:31;;;;;;;9.88;8.30;;;;;;;21.83;100.00;101334.22;7391210;19;20014;-42
2022/06/27 03:52:13;;;;;;;13.32;9.23;;;;;;;22.31;100.00;101316.81;7393050;19;20433;-44
2022/06/27 03:54:42;;;;;;;13.00;9.48;;;;;;;22.10;100.00;101315.00;7391432;19;20015;-42
2022/06/27 03:57:14;;;;;;;14.02;9.63;;;;;;;21.86;100.00;101319.78;7394417;19;20025;-45
2022/06/27 03:59:43;;;;;;;14.30;9.82;;;;;;;21.86;100.00;101314.44;7393064;19;20078;-43
2022/06/27 04:02:14;;;;;;;12.38;10.27;;;;;;;22.05;100.00;101317.25;7394345;19;20014;-43
2022/06/27 04:04:59;;;;;;;14.10;10.30;;;;;;;22.04;100.00;101322.72;7391080;19;20025;-45
2022/06/27 04:07:28;;;;;;;11.68;9.70;;;;;;;21.89;100.00;101327.50;7392418;19;20025;-45
2022/06/27 04:09:57;;;;;;;14.93;11.52;;;;;;;21.98;100.00;101318.75;7392493;19;20018;-45
2022/06/27 04:12:29;;;;;;;15.48;11.50;;;;;;;22.16;100.00;101342.16;7393342;19;20014;-42
2022/06/27 04:15:36;;;;;;;17.95;12.10;;;;;;;22.33;100.00;101335.41;7393651;19;20468;-43
2022/06/27 04:18:24;;;;;;;16.80;11.73;;;;;;;22.32;100.00;101336.34;7393412;19;20374;-43
2022/06/27 04:21:03;;;;;;;15.60;12.43;;;;;;;22.20;100.00;101323.06;7394462;19;20491;-43
2022/06/27 04:23:46;;;;;;;16.45;12.55;;;;;;;22.04;100.00;101320.03;7391628;19;20006;-44
2022/06/27 04:26:20;;;;;;;17.38;13.93;;;;;;;22.24;100.00;101334.34;7391822;19;20111;-42
2022/06/27 04:28:52;;;;;;;14.43;11.60;;;;;;;22.10;100.00;101343.53;7392004;19;20030;-43
2022/06/27 04:31:22;;;;;;;17.73;13.02;;;;;;;22.15;100.00;101351.13;7392346;19;20018;-43
2022/06/27 04:33:52;;;;;;;16.65;12.80;;;;;;;22.03;100.00;101337.03;7391602;19;20370;-44
2022/06/27 04:36:21;;;;;;;15.15;13.00;;;;;;;21.95;100.00;101337.69;7391595;19;20015;-45
2022/06/27 04:38:50;;;;;;;17.63;13.70;;;;;;;22.20;100.00;101346.28;7391964;19;20332;-45
2022/06/27 04:41:20;;;;;;;15.38;11.93;;;;;;;22.13;100.00;101341.44;7394105;19;20035;-44
2022/06/27 04:43:53;;;;;;;16.15;12.93;;;;;;;22.06;100.00;101339.44;7391944;19;20026;-47
2022/06/27 04:46:22;;;;;;;14.90;13.13;;;;;;;22.09;100.00;101340.03;7390949;19;20372;-44
2022/06/27 04:48:57;;;;;;;18.60;14.02;;;;;;;22.32;100.00;101336.34;7393796;19;20107;-43
2022/06/27 04:51:26;;;;;;;16.40;13.25;;;;;;;22.26;100.00;101330.56;7393380;19;20022;-43
2022/06/27 04:53:55;;;;;;;16.15;12.35;;;;;;;22.23;100.00;101324.66;7389167;19;20041;-44
2022/06/27 04:56:25;;;;;;;16.77;13.38;;;;;;;22.39;100.00;101316.19;7394861;19;20021;-48
2022/06/27 04:58:56;;;;;;;14.82;12.70;;;;;;;22.30;100.00;101315.13;7397114;19;20006;-44
2022/06/27 05:01:25;;;;;;;18.02;12.57;;;;;;;22.48;100.00;101307.38;7398898;19;20010;-44
2022/06/27 05:04:03;;;;;;;20.58;13.85;;;;;;;22.69;100.00;101309.16;7398662;19;20077;-44
2022/06/27 05:06:36;;;;;;;17.30;12.85;;;;;;;22.63;100.00;101306.03;7396954;19;20022;-45
2022/06/27 05:09:08;;;;;;;16.93;13.40;;;;;;;22.52;100.00;101291.94;7394279;19;20136;-44
2022/06/27 05:11:38;;;;;;;20.42;15.50;;;;;;;22.66;100.00;101288.88;7394941;19;20017;-45
2022/06/27 05:14:11;;;;;;;18.50;15.25;;;;;;;22.58;100.00;101299.38;7394940;19;20022;-46
2022/06/27 05:16:48;;;;;;;17.02;15.13;;;;;;;22.33;100.00;101290.84;7394395;19;20380;-45
2022/06/27 05:19:17;;;;;;;17.67;13.82;;;;;;;22.40;100.00;101300.03;7393676;19;20019;-44
2022/06/27 05:21:49;;;;;;;17.33;14.60;;;;;;;22.37;100.00;101310.16;7394733;19;20015;-46
2022/06/27 05:24:20;;;;;;;18.08;15.00;;;;;;;22.25;100.00;101306.66;7394506;19;20019;-45
2022/06/27 05:26:50;;;;;;;18.70;13.98;;;;;;;22.39;100.00;101306.34;7389180;19;20017;-44
2022/06/27 05:29:22;;;;;;;24.60;14.88;;;;;;;22.42;100.00;101308.78;7390407;19;20015;-43
2022/06/27 05:31:51;;;;;;;18.65;14.90;;;;;;;22.46;100.00;101304.00;7391597;19;20334;-43
2022/06/27 05:34:22;;;;;;;19.20;14.45;;;;;;;22.59;100.00;101290.41;7390163;19;20014;-44
2022/06/27 05:36:51;;;;;;;18.58;14.50;;;;;;;22.62;100.00;101282.97;7392753;19;20018;-45
2022/06/27 05:39:20;;;;;;;17.05;14.40;;;;;;;22.57;100.00;101276.34;7397140;19;20025;-43
2022/06/27 05:41:50;;;;;;;18.15;14.10;;;;;;;22.47;100.00;101281.66;7397021;19;20014;-43
2022/06/27 05:44:27;;;;;;;18.42;13.85;;;;;;;22.45;100.00;101287.13;7397387;19;20018;-43
2022/06/27 05:46:58;;;;;;;19.30;14.85;;;;;;;22.57;100.00;101295.06;7394419;19;20013;-44
2022/06/27 05:49:50;;;;;;;19.67;15.00;;;;;;;22.51;100.00;101300.91;7390869;19;20499;-43
2022/06/27 05:52:19;;;;;;;18.58;14.25;;;;;;;22.51;100.00;101306.25;7390508;19;20007;-43
2022/06/27 05:54:48;;;;;;;18.42;14.75;;;;;;;22.52;100.00;101298.09;7391076;19;20048;-43
2022/06/27 05:57:18;;;;;;;16.27;14.25;;;;;;;22.43;100.00;101298.91;7398402;19;20015;-44
2022/06/27 05:59:50;;;;;;;16.25;13.80;;;;;;;22.36;100.00;101311.13;7397207;19;20363;-43
2022/06/27 06:02:19;;;;;;;18.93;15.77;;;;;;;22.39;100.00;101341.06;7398381;19;20464;-44
2022/06/27 06:04:50;;;;;;;16.65;14.57;;;;;;;22.44;100.00;101375.41;7399602;19;20015;-44
2022/06/27 06:07:19;;;;;;;19.67;14.38;;;;;;;22.56;100.00;101393.00;7400896;19;20044;-44
2022/06/27 06:09:49;;;;;;;19.50;13.15;;;;;;;22.59;100.00;101376.72;7397095;19;20038;-43
2022/06/27 06:12:18;;;;;;;16.95;12.55;;;;;;;22.43;100.00;101369.19;7399044;19;20022;-43
2022/06/27 06:14:51;;;;;;;19.20;13.98;;;;;;;22.64;100.00;101385.19;7395049;19;20434;-45
2022/06/27 06:17:20;;;;;;;19.80;14.68;;;;;;;22.80;100.00;101416.75;7398543;19;20007;-44
2022/06/27 06:19:49;;;;;;;19.33;14.10;;;;;;;23.00;100.00;101406.16;7398077;19;20018;-45
2022/06/27 06:22:18;;;;;;;18.30;13.15;;;;;;;22.81;100.00;101412.28;7398021;19;20447;-44
2022/06/27 06:24:49;;;;;;;13.18;11.73;;;;;;;22.36;100.00;101420.59;7394787;19;20041;-43
2022/06/27 06:27:18;;;;;;;15.88;12.13;;;;;;;22.50;100.00;101414.09;7397142;19;20470;-46
2022/06/27 06:29:47;;;;;;;13.95;11.23;;;;;;;22.69;100.00;101427.53;7396059;19;20021;-47
2022/06/27 06:32:20;;;;;;;17.90;11.65;;;;;;;22.60;100.00;101426.50;7397308;19;20024;-45
2022/06/27 06:34:50;;;;;;;;;;;;;;;22.30;100.00;101452.13;7396372;19;20033;-44
2022/06/27 06:37:20;;;;;;;12.63;9.82;;;;;;;22.44;100.00;101450.16;7397596;19;20375;-44
2022/06/27 06:39:49;;;;;;;15.13;12.95;;;;;;;22.55;100.00;101450.09;7396988;19;20017;-44
2022/06/27 06:42:18;;;;;;;23.17;14.30;;;;;;;22.52;100.00;101441.50;7397674;19;20086;-43
2022/06/27 06:45:03;;;;;;;18.88;13.18;;;;;;;22.74;100.00;101419.97;7395112;19;20014;-45
2022/06/27 06:47:52;;;;;;;15.18;12.20;;;;;;;22.64;100.00;101421.75;7394597;19;20050;-46
2022/06/27 06:50:23;;;;;;;18.05;14.65;;;;;;;22.54;100.00;101439.53;7395456;19;20458;-44
2022/06/27 06:52:53;;;;;;;19.55;15.45;;;;;;;22.66;100.00;101438.47;7397447;19;20022;-45
2022/06/27 06:55:24;;;;;;;17.27;14.85;;;;;;;22.29;100.00;101426.44;7394885;19;20052;-44
2022/06/27 06:57:54;;;;;;;22.48;14.55;;;;;;;22.41;100.00;101435.25;7398753;19;20021;-43
2022/06/27 07:00:23;;;;;;;21.40;14.75;;;;;;;22.66;100.00;101432.31;7397310;19;20003;-44
2022/06/27 07:02:55;;;;;;;21.02;15.52;;;;;;;22.58;100.00;101423.13;7397837;19;20014;-45
2022/06/27 07:05:25;;;;;;;22.05;18.08;;;;;;;22.58;100.00;101404.44;7394128;19;20018;-44
2022/06/27 07:07:55;;;;;;;16.00;14.27;;;;;;;22.59;100.00;101397.25;7395813;19;20050;-44
2022/06/27 07:10:25;;;;;;;16.88;14.05;;;;;;;22.57;100.00;101377.84;7397395;19;20044;-43
2022/06/27 07:12:54;;;;;;;18.67;15.45;;;;;;;22.63;100.00;101363.97;7397649;19;20026;-43
2022/06/27 07:15:23;;;;;;;19.00;14.73;;;;;;;22.76;100.00;101356.56;7395465;19;20015;-46
2022/06/27 07:17:55;;;;;;;23.73;15.48;;;;;;;22.89;100.00;101348.28;7396529;19;20015;-43
2022/06/27 07:20:24;;;;;;;21.00;15.55;;;;;;;23.02;100.00;101344.53;7397271;19;20028;-43
2022/06/27 07:22:53;;;;;;;17.13;12.70;;;;;;;22.80;100.00;101327.75;7397256;19;20029;-45
2022/06/27 07:25:22;;;;;;;19.10;13.43;;;;;;;22.82;100.00;101331.13;7395596;19;20346;-45
2022/06/27 07:27:52;;;;;;;17.02;12.85;;;;;;;22.79;100.00;101342.09;7395689;19;20011;-43
2022/06/27 07:30:21;;;;;;;21.95;13.05;;;;;;;22.94;100.00;101359.44;7396609;19;20018;-43
2022/06/27 07:32:51;;;;;;;14.68;12.23;;;;;;;22.86;100.00;101364.59;7396948;19;20014;-43
2022/06/27 07:35:22;;;;;;;14.60;11.48;;;;;;;22.91;100.00;101372.22;7395249;19;20014;-43
2022/06/27 07:37:52;;;;;;;17.23;14.00;;;;;;;22.94;100.00;101374.63;7396646;19;20054;-43
2022/06/27 07:40:22;;;;;;;17.83;14.70;;;;;;;22.85;100.00;101370.09;7396082;19;20017;-43
2022/06/27 07:42:53;;;;;;;18.63;15.05;;;;;;;22.91;100.00;101361.53;7396684;19;20526;-43
2022/06/27 07:45:23;;;;;;;18.88;14.32;;;;;;;22.90;100.00;101354.50;7394760;19;20023;-43
2022/06/27 07:47:54;;;;;;;18.45;15.05;;;;;;;22.76;100.00;101369.91;7395604;19;20018;-43
2022/06/27 07:50:41;;;;;;;19.92;14.15;;;;;;;22.83;100.00;101385.41;7396634;19;20018;-46
2022/06/27 07:53:17;;;;;;;16.25;13.65;;;;;;;22.78;100.00;101393.81;7396746;19;20022;-44
2022/06/27 07:55:49;;;;;;;20.73;13.60;;;;;;;22.77;100.00;101392.97;7395845;19;20353;-44
2022/06/27 07:58:19;;;;;;;14.05;11.88;;;;;;;22.73;100.00;101398.72;7395502;19;20023;-45
2022/06/27 08:00:50;;;;;;;16.33;12.45;;;;;;;22.74;100.00;101376.38;7396239;19;20014;-43
2022/06/27 08:06:09;;;;;;;15.98;12.48;;;;;;;22.96;100.00;101383.34;7396625;19;20014;-45
2022/06/27 08:08:39;;;;;;;15.95;12.88;;;;;;;22.92;100.00;101403.31;7396370;19;20399;-44
2022/06/27 08:11:10;;;;;;;21.40;13.93;;;;;;;23.07;100.00;101414.50;7396526;19;20525;-46
2022/06/27 08:13:40;;;;;;;17.35;13.15;;;;;;;22.99;100.00;101423.16;7395961;19;20020;-44
2022/06/27 08:16:12;;;;;;;15.90;12.80;;;;;;;23.14;100.00;101435.22;7395981;19;20332;-44
2022/06/27 08:18:42;;;;;;;15.63;12.07;;;;;;;23.07;100.00;101436.72;7395127;19;20019;-43
2022/06/27 08:21:14;;;;;;;12.60;11.30;;;;;;;23.09;100.00;101460.66;7396607;19;20015;-44
2022/06/27 08:23:44;;;;;;;13.67;10.97;;;;;;;23.03;100.00;101470.03;7395980;19;20018;-43
2022/06/27 08:26:13;;;;;;;14.85;11.55;;;;;;;23.08;100.00;101478.53;7395745;19;20019;-43
2022/06/27 08:28:44;;;;;;;13.80;12.25;;;;;;;23.17;100.00;101484.91;7394473;19;20026;-43
2022/06/27 08:31:15;;;;;;;17.98;12.15;;;;;;;22.96;100.00;101485.75;7396359;19;20033;-43
2022/06/27 08:33:46;;;;;;;14.68;10.63;;;;;;;22.98;100.00;101478.47;7395035;19;20011;-45
2022/06/27 08:36:19;;;;;;;13.55;11.63;;;;;;;23.08;100.00;101470.50;7396517;19;20122;-43
2022/06/27 08:38:50;;;;;;;15.68;11.23;;;;;;;23.16;100.00;101483.22;7395354;19;20025;-45
2022/06/27 08:41:20;;;;;;;16.63;11.32;;;;;;;23.31;100.00;101491.72;7398015;19;20019;-44
2022/06/27 08:43:51;;;;;;;15.70;9.63;;;;;;;22.87;100.00;101480.34;7394940;19;20022;-43
2022/06/27 08:46:20;;;;;;;10.52;7.47;;;;;;;23.11;99.52;101466.72;7395564;19;20010;-43
2022/06/27 08:48:50;;;;;;;6.95;5.60;;;;;;;23.11;92.76;101475.59;7393992;19;20426;-44
2022/06/27 08:51:21;;;;;;;11.50;7.20;;;;;;;23.18;96.17;101477.72;7395715;19;20491;-44
2022/06/27 08:53:53;;;;;;;8.93;7.45;;;;;;;23.27;96.26;101468.91;7395082;19;20052;-43
2022/06/27 08:56:24;;;;;;;10.32;7.38;;;;;;;23.53;95.15;101481.78;7395445;19;20018;-43
2022/06/27 08:58:55;;;;;;;11.13;6.78;;;;;;;23.61;96.28;101485.50;7394118;19;20018;-44
2022/06/27 09:01:27;;;;;;;10.52;6.30;;;;;;;23.67;95.80;101484.09;7395992;19;20014;-43
2022/06/27 09:04:01;;;;;;;29.50;11.23;;;;;;;23.94;94.82;101494.16;7393789;19;20023;-43
2022/06/27 09:06:35;;;;;;;9.32;7.47;;;;;;;23.83;92.89;101500.44;7393443;19;20051;-43
2022/06/27 09:09:08;;;;;;;7.68;5.82;;;;;;;23.72;93.25;101497.88;7393780;19;20014;-42
2022/06/27 09:11:39;;;;;;;10.63;6.95;;;;;;;23.74;98.22;101493.25;7396111;19;20019;-44
2022/06/27 09:14:29;;;;;;;11.45;7.20;;;;;;;23.73;83.04;101488.88;7394413;19;20025;-43
2022/06/27 09:17:04;;;;;;;11.25;7.13;;;;;;;23.73;90.80;101474.66;7394830;19;20427;-43
2022/06/27 09:19:53;;;;;;;12.30;7.75;;;;;;;23.65;81.06;101467.31;7393933;19;20011;-45
2022/06/27 09:22:28;;;;;;;12.27;8.82;;;;;;;23.40;88.33;101463.34;7394454;19;20340;-44
2022/06/27 09:25:06;;;;;;;13.88;7.38;;;;;;;23.60;83.51;101477.59;7394214;19;20061;-43
2022/06/27 09:27:40;;;;;;;12.02;7.10;;;;;;;23.79;81.14;101476.78;7394153;19;20018;-42
2022/06/27 09:30:25;;;;;;;9.43;6.88;;;;;;;23.37;83.40;101498.34;7394217;19;20017;-43
2022/06/27 09:32:57;;;;;;;10.45;6.90;;;;;;;23.04;88.54;101509.16;7394434;19;20010;-43
2022/06/27 09:35:29;;;;;;;12.13;6.68;;;;;;;23.59;88.49;101497.31;7393890;19;20475;-43
2022/06/27 09:38:03;;;;;;;8.20;6.20;;;;;;;23.24;85.71;101506.59;7394090;19;20082;-44
2022/06/27 09:40:34;;;;;;;10.18;6.53;;;;;;;23.48;88.28;101508.94;7398692;19;20744;-43
2022/06/27 09:43:03;;;;;;;6.85;6.15;;;;;;;22.86;89.08;101500.06;7403494;19;20086;-43
2022/06/27 09:45:32;;;;;;;8.63;5.82;;;;;;;23.24;89.55;101491.41;7400490;19;20061;-50
2022/06/27 09:48:04;;;;;;;7.75;4.60;;;;;;;23.46;84.03;101484.19;7400761;19;20355;-43
2022/06/27 09:50:36;;;;;;;7.82;5.18;;;;;;;23.60;85.30;101499.00;7400988;19;20019;-43
2022/06/27 09:53:09;;;;;;;6.28;4.05;;;;;;;23.39;73.95;101502.59;7401254;19;20026;-45
2022/06/27 09:55:39;;;;;;;6.40;4.65;;;;;;;23.47;80.27;101520.66;7400068;19;20025;-45
2022/06/27 09:58:10;;;;;;;6.85;3.90;;;;;;;23.53;80.92;101513.88;7401586;19;20017;-43
2022/06/27 10:00:40;;;;;;;8.25;4.55;;;;;;;23.50;77.06;101518.53;7399965;19;20019;-44
2022/06/27 10:03:10;;;;;;;7.85;6.07;;;;;;;23.22;78.84;101514.75;7401888;19;20018;-44
2022/06/27 10:05:40;;;;;;;8.90;5.85;;;;;;;23.37;83.13;101512.59;7400305;19;20015;-44
2022/06/27 10:08:12;;;;;;;13.68;6.72;;;;;;;23.59;84.56;101498.13;7399031;19;20017;-44
2022/06/27 10:11:07;;;;;;;10.27;6.00;;;;;;;23.83;84.49;101500.44;7401665;19;20487;-44
2022/06/27 10:13:38;;;;;;;10.55;6.50;;;;;;;24.19;82.10;101497.28;7400200;19;20014;-44
2022/06/27 10:16:12;;;;;;;11.95;7.90;;;;;;;24.28;81.21;101483.03;7400159;19;20022;-44
2022/06/27 10:19:03;;;;;;;10.68;7.57;;;;;;;23.95;81.15;101477.09;7399957;19;20018;-43
2022/06/27 10:21:33;;;;;;;9.00;6.60;;;;;;;23.97;80.71;101483.19;7403195;19;20372;-44
2022/06/27 10:24:34;;;;;;;10.30;7.20;;;;;;;23.96;75.65;101486.84;7405050;19;20018;-47
2022/06/27 10:27:10;;;;;;;9.48;6.10;;;;;;;23.93;77.43;101491.63;7407512;19;20017;-45
2022/06/27 10:29:43;;;;;;;14.32;6.82;;;;;;;24.24;76.54;101486.13;7404808;19;20014;-43
2022/06/27 10:32:41;;;;;;;9.80;6.35;;;;;;;24.16;79.92;101485.00;7407069;19;20013;-43
2022/06/27 10:35:13;;;;;;;10.57;7.10;;;;;;;24.20;80.56;101474.88;7399741;19;20019;-43
2022/06/27 10:37:44;;;;;;;11.07;6.22;;;;;;;24.64;76.76;101474.41;7401033;19;20014;-43
2022/06/27 10:40:58;;;;;;;11.18;7.00;;;;;;;24.55;77.53;101461.88;7399763;19;20022;-43
2022/06/27 10:43:48;;;;;;;10.88;6.75;;;;;;;24.50;76.77;101463.16;7399908;19;20470;-43
2022/06/27 10:46:42;;;;;;;7.20;4.90;;;;;;;24.56;74.87;101463.53;7400021;19;20031;-44
2022/06/27 10:49:24;;;;;;;7.30;5.00;;;;;;;24.61;74.14;101458.63;7396507;19;20019;-43
2022/06/27 10:51:54;;;;;;;6.53;5.77;;;;;;;24.93;71.94;101462.78;7397357;19;20022;-43
2022/06/27 10:54:24;;;;;;;9.50;6.18;;;;;;;24.95;70.05;101458.97;7398451;19;20356;-43
2022/06/27 10:56:55;;;;;;;9.48;5.90;;;;;;;24.93;66.21;101450.22;7399131;19;20494;-43
2022/06/27 11:00:04;;;;;;;7.40;5.35;;;;;;;24.62;69.97;101450.44;7398998;19;20624;-43
2022/06/27 11:02:36;;;;;;;7.90;5.40;;;;;;;24.70;67.27;101445.22;7399319;19;20014;-44
2022/06/27 11:05:06;;;;;;;9.25;6.50;;;;;;;24.76;70.17;101441.13;7397216;19;20018;-43
2022/06/27 11:07:35;;;;;;;7.78;5.70;;;;;;;24.71;70.79;101443.38;7401945;19;20014;-44
2022/06/27 11:10:04;;;;;;;8.15;4.60;;;;;;;24.82;67.51;101453.91;7396944;19;20019;-43
2022/06/27 11:12:36;;;;;;;9.77;6.03;;;;;;;24.99;70.82;101457.69;7398729;19;20437;-43
2022/06/27 11:15:06;;;;;;;7.65;4.93;;;;;;;25.02;65.19;101468.09;7396690;19;20014;-43
2022/06/27 11:17:41;;;;;;;6.30;4.55;;;;;;;25.14;62.48;101468.75;7398237;19;20480;-44
2022/06/27 11:20:15;;;;;;;7.43;4.13;;;;;;;25.20;64.86;101475.38;7396635;19;20017;-43
2022/06/27 11:22:45;;;;;;;7.68;5.07;;;;;;;25.16;67.88;101473.97;7397593;19;20488;-43
2022/06/27 11:25:15;;;;;;;10.52;6.30;;;;;;;25.01;71.10;101476.28;7395566;19;20026;-45
2022/06/27 11:27:52;;;;;;;8.82;5.63;;;;;;;24.95;74.03;101467.00;7395908;19;20022;-43
2022/06/27 11:33:17;;;;;;;9.43;6.30;;;;;;;24.70;71.83;101477.38;7396768;19;20021;-43
2022/06/27 11:35:47;;;;;;;8.88;6.30;;;;;;;24.76;70.64;101480.44;7396913;19;20006;-44
2022/06/27 11:38:24;;;;;;;9.55;5.60;;;;;;;24.69;70.28;101474.84;7395470;19;20015;-44
2022/06/27 11:41:03;;;;;;;14.07;6.22;;;;;;;24.63;71.99;101473.59;7397087;19;20364;-44
2022/06/27 11:43:51;;;;;;;8.77;5.07;;;;;;;24.31;71.05;101469.34;7396207;19;20033;-43
2022/06/27 11:46:28;;;;;;;10.68;5.78;;;;;;;24.42;75.15;101479.09;7397558;19;20022;-43
2022/06/27 11:49:02;;;;;;;8.35;5.30;;;;;;;24.41;73.56;101480.06;7394827;19;20019;-43